Time;durP1;ratioP1;P1;durP2;ratioP2;P2;SDS_P1;SDS_P2;PMS_P1;PMS_P2;Temp;Humidity;BMP_temperature;BMP_pressure;BME280_temperature;BME280_humidity;BME280_pressure;Samples;Min_cycle;Max_cycle;Signal;HPM_P1;HPM_P2
2022/03/17 00:01:39;;;;;;;10.33;10.03;;;7.00;99.90;;;;;;5101575;28;20233;-82
2022/03/17 00:04:08;;;;;;;10.17;9.87;;;6.90;99.90;;;;;;5101514;28;20224;-82
2022/03/17 00:06:36;;;;;;;10.37;10.07;;;6.90;99.90;;;;;;5100580;28;20259;-82
2022/03/17 00:09:06;;;;;;;10.10;9.80;;;6.90;99.90;;;;;;5100991;28;20235;-82
2022/03/17 00:11:34;;;;;;;10.33;10.03;;;6.90;99.90;;;;;;5101022;28;20226;-82
2022/03/17 00:14:02;;;;;;;10.50;10.20;;;6.90;99.90;;;;;;5100728;28;20230;-82
2022/03/17 00:16:32;;;;;;;10.30;10.00;;;6.90;99.90;;;;;;5099929;28;20225;-82
2022/03/17 00:19:05;;;;;;;10.10;9.80;;;6.90;99.90;;;;;;5101013;28;20261;-82
2022/03/17 00:21:32;;;;;;;10.03;9.73;;;6.90;99.90;;;;;;5101309;28;20240;-82
2022/03/17 00:24:00;;;;;;;9.90;9.60;;;6.90;99.90;;;;;;5101625;28;20225;-82
2022/03/17 00:26:28;;;;;;;10.00;9.70;;;6.90;99.90;;;;;;5100656;28;20229;-82
2022/03/17 00:28:56;;;;;;;10.00;9.70;;;6.90;99.90;;;;;;5101590;28;20237;-82
2022/03/17 00:31:24;;;;;;;10.20;9.90;;;6.90;99.90;;;;;;5101579;28;20221;-82
2022/03/17 00:33:51;;;;;;;10.07;9.77;;;6.90;99.90;;;;;;5100904;28;20252;-82
2022/03/17 00:36:21;;;;;;;10.10;9.80;;;6.90;99.90;;;;;;5100773;28;20237;-82
2022/03/17 00:38:49;;;;;;;10.17;9.87;;;6.90;99.90;;;;;;5100908;28;20217;-82
2022/03/17 00:41:17;;;;;;;10.10;9.80;;;6.80;99.90;;;;;;5101208;28;20244;-82
2022/03/17 00:43:45;;;;;;;10.30;10.00;;;6.80;99.90;;;;;;5101701;28;20231;-82
2022/03/17 00:46:13;;;;;;;10.10;9.80;;;6.80;99.90;;;;;;5104976;28;20268;-82
2022/03/17 00:48:40;;;;;;;10.10;9.80;;;6.80;99.90;;;;;;5103049;28;20237;-82
2022/03/17 00:51:08;;;;;;;10.10;9.80;;;6.80;99.90;;;;;;5100431;28;20614;-82
2022/03/17 00:53:38;;;;;;;10.40;10.10;;;6.80;99.90;;;;;;5100588;28;20240;-82
2022/03/17 00:56:06;;;;;;;10.37;10.07;;;6.80;99.90;;;;;;5100288;28;20224;-82
2022/03/17 00:58:34;;;;;;;10.30;10.00;;;6.70;99.90;;;;;;5176754;22;20230;-86
2022/03/17 01:01:02;;;;;;;10.33;10.03;;;6.70;99.90;;;;;;5081199;28;20234;-86
2022/03/17 01:03:32;;;;;;;10.23;9.93;;;6.70;99.90;;;;;;5062710;28;20301;-86
2022/03/17 01:06:02;;;;;;;10.30;10.00;;;6.70;99.90;;;;;;5060926;28;20223;-87
2022/03/17 01:08:32;;;;;;;10.37;10.07;;;6.70;99.90;;;;;;5060186;28;20326;-87
2022/03/17 01:11:03;;;;;;;10.30;10.00;;;6.60;99.90;;;;;;5060573;28;20237;-86
2022/03/17 01:13:32;;;;;;;10.20;9.90;;;6.60;99.90;;;;;;5060442;28;20258;-87
2022/03/17 01:16:00;;;;;;;10.27;9.97;;;6.60;99.90;;;;;;5059718;28;20223;-88
2022/03/17 01:18:30;;;;;;;10.33;10.03;;;6.50;99.90;;;;;;5059736;28;20226;-88
2022/03/17 01:20:59;;;;;;;10.43;10.13;;;6.50;99.90;;;;;;5060146;28;20230;-88
2022/03/17 01:23:27;;;;;;;10.30;10.00;;;6.50;99.90;;;;;;5060400;28;20311;-88
2022/03/17 01:25:56;;;;;;;10.27;9.97;;;6.50;99.90;;;;;;5066185;28;20242;-85
2022/03/17 01:28:35;;;;;;;10.60;10.30;;;6.50;99.90;;;;;;5062025;28;20241;-87
2022/03/17 01:31:05;;;;;;;10.50;10.20;;;6.50;99.90;;;;;;5060186;28;20242;-88
2022/03/17 01:33:36;;;;;;;10.40;10.10;;;6.50;99.90;;;;;;5060343;28;20342;-88
2022/03/17 01:36:04;;;;;;;10.20;9.90;;;6.50;99.90;;;;;;5060075;28;20229;-87
2022/03/17 01:38:33;;;;;;;10.20;9.90;;;6.50;99.90;;;;;;5059391;28;20234;-87
2022/03/17 01:41:03;;;;;;;10.40;10.10;;;6.40;99.90;;;;;;5059948;28;20795;-87
2022/03/17 01:43:34;;;;;;;10.57;10.27;;;6.20;99.90;;;;;;5059822;28;20293;-88
2022/03/17 01:46:03;;;;;;;10.40;10.10;;;6.20;99.90;;;;;;5059955;28;20242;-87
2022/03/17 01:48:31;;;;;;;10.40;10.10;;;6.20;99.90;;;;;;5059795;28;20235;-87
2022/03/17 01:51:00;;;;;;;10.40;10.10;;;6.10;99.90;;;;;;5059695;28;20231;-87
2022/03/17 01:53:31;;;;;;;10.60;10.30;;;6.10;99.90;;;;;;5059507;28;20234;-87
2022/03/17 01:59:01;;;;;;;10.50;10.20;;;6.20;99.90;;;;;;5056160;28;20535;-87
2022/03/17 02:01:38;;;;;;;10.33;10.03;;;6.30;99.90;;;;;;5059951;28;20242;-86
2022/03/17 02:04:07;;;;;;;10.33;10.03;;;6.30;99.90;;;;;;5059356;28;20285;-87
2022/03/17 02:06:37;;;;;;;10.60;10.30;;;6.40;99.90;;;;;;5058931;28;20250;-88
2022/03/17 02:09:05;;;;;;;10.60;10.30;;;6.40;99.90;;;;;;5060666;28;20211;-88
2022/03/17 02:14:34;;;;;;;10.40;10.10;;;6.30;99.90;;;;;;5062699;28;20211;-88
2022/03/17 02:17:06;;;;;;;10.53;10.23;;;6.30;99.90;;;;;;5065392;28;20325;-87
2022/03/17 02:19:36;;;;;;;10.60;10.30;;;6.20;99.90;;;;;;5066230;28;20237;-88
2022/03/17 02:22:07;;;;;;;10.63;10.33;;;6.20;99.90;;;;;;5061824;28;20239;-88
2022/03/17 02:27:23;;;;;;;10.57;10.27;;;6.20;99.90;;;;;;5064956;28;20211;-88
2022/03/17 02:29:51;;;;;;;10.47;10.17;;;6.30;99.90;;;;;;5063498;28;20223;-87
2022/03/17 02:32:21;;;;;;;10.37;10.07;;;6.20;99.90;;;;;;5062515;28;20231;-86
2022/03/17 02:34:50;;;;;;;10.60;10.30;;;6.30;99.90;;;;;;5076318;28;20239;-85
2022/03/17 02:37:19;;;;;;;10.63;10.33;;;6.30;99.90;;;;;;5081209;28;20242;-84
2022/03/17 02:39:59;;;;;;;10.43;10.13;;;6.20;99.90;;;;;;5076410;28;20218;-87
2022/03/17 02:42:30;;;;;;;10.63;10.33;;;6.20;99.90;;;;;;5079389;28;20241;-85
2022/03/17 02:44:59;;;;;;;10.40;10.10;;;6.20;99.90;;;;;;5075685;28;20229;-87
2022/03/17 02:47:36;;;;;;;10.50;10.20;;;6.20;99.90;;;;;;5064103;28;20278;-87
2022/03/17 02:50:07;;;;;;;10.37;10.07;;;6.20;99.90;;;;;;5063566;28;20289;-86
2022/03/17 02:52:35;;;;;;;10.40;10.10;;;6.20;99.90;;;;;;5063094;28;20254;-87
2022/03/17 02:55:12;;;;;;;10.47;10.17;;;6.20;99.90;;;;;;5062653;28;20230;-88
2022/03/17 02:57:50;;;;;;;10.47;10.17;;;6.20;99.90;;;;;;5062186;28;20249;-88
2022/03/17 03:00:21;;;;;;;10.30;10.00;;;6.20;99.90;;;;;;5062351;28;20238;-88
2022/03/17 03:02:51;;;;;;;10.13;9.83;;;6.20;99.90;;;;;;5061700;28;20238;-87
2022/03/17 03:05:19;;;;;;;10.33;10.03;;;6.20;99.90;;;;;;5063215;28;20239;-87
2022/03/17 03:07:50;;;;;;;10.20;9.90;;;6.30;99.90;;;;;;5064587;28;20259;-89
2022/03/17 03:10:29;;;;;;;10.33;10.03;;;6.30;99.90;;;;;;5064485;28;20227;-88
2022/03/17 03:13:06;;;;;;;10.33;10.03;;;6.30;99.90;;;;;;5063367;28;20649;-88
2022/03/17 03:15:34;;;;;;;10.30;10.00;;;6.30;99.90;;;;;;5061649;28;20227;-88
2022/03/17 03:18:05;;;;;;;10.27;9.97;;;6.20;99.90;;;;;;5061310;28;20241;-88
2022/03/17 03:20:34;;;;;;;10.33;10.03;;;6.20;99.90;;;;;;5061024;28;20255;-88
2022/03/17 03:23:02;;;;;;;10.40;10.10;;;6.20;99.90;;;;;;5060923;28;20265;-88
2022/03/17 03:25:34;;;;;;;10.30;10.00;;;6.20;99.90;;;;;;5061520;28;20237;-88
2022/03/17 03:28:12;;;;;;;10.70;10.40;;;6.20;99.90;;;;;;5061330;28;20262;-88
2022/03/17 03:30:40;;;;;;;10.33;10.03;;;6.20;99.90;;;;;;5061572;28;20218;-88
2022/03/17 03:33:09;;;;;;;10.50;10.20;;;6.20;99.90;;;;;;5061099;28;20719;-87
2022/03/17 03:38:26;;;;;;;10.63;10.33;;;6.10;99.90;;;;;;5061127;28;20262;-88
2022/03/17 03:41:04;;;;;;;10.70;10.40;;;5.90;99.90;;;;;;5061028;28;20226;-88
2022/03/17 03:43:32;;;;;;;10.83;10.53;;;5.80;99.90;;;;;;5060760;28;20238;-88
2022/03/17 03:46:02;;;;;;;11.00;10.70;;;5.60;99.90;;;;;;5061018;28;20219;-87
2022/03/17 03:48:32;;;;;;;11.03;10.73;;;5.60;99.90;;;;;;5060814;28;20239;-89
2022/03/17 03:51:01;;;;;;;10.90;10.60;;;5.60;99.90;;;;;;5060658;28;20235;-87
2022/03/17 03:54:12;;;;;;;11.50;11.10;;;5.40;99.90;;;;;;5060859;28;20226;-87
2022/03/17 03:56:31;;;;;;;11.00;10.70;;;5.30;99.90;;;;;;5061126;28;20227;-88
2022/03/17 03:59:00;;;;;;;11.20;10.90;;;5.30;99.90;;;;;;5060853;28;20235;-87
2022/03/17 04:01:30;;;;;;;10.97;10.67;;;5.30;99.90;;;;;;5060873;28;20227;-86
2022/03/17 04:03:58;;;;;;;11.17;10.87;;;5.20;99.90;;;;;;5059919;28;20245;-87
2022/03/17 04:06:26;;;;;;;11.10;10.80;;;5.30;99.90;;;;;;5060221;28;20242;-87
2022/03/17 04:08:57;;;;;;;11.00;10.70;;;5.30;99.90;;;;;;5073932;28;20234;-87
2022/03/17 04:11:28;;;;;;;10.63;10.33;;;5.40;99.90;;;;;;5070431;28;20234;-88
2022/03/17 04:13:56;;;;;;;11.00;10.70;;;5.50;99.90;;;;;;5061913;28;20235;-88
2022/03/17 04:16:24;;;;;;;10.80;10.50;;;5.50;99.90;;;;;;5060532;28;20261;-88
2022/03/17 04:18:53;;;;;;;10.80;10.50;;;5.60;99.90;;;;;;5060629;28;20234;-88
2022/03/17 04:21:23;;;;;;;10.67;10.37;;;5.60;99.90;;;;;;5063121;28;20268;-88
2022/03/17 04:23:52;;;;;;;10.77;10.47;;;5.60;99.90;;;;;;5060882;28;20245;-87
2022/03/17 04:26:22;;;;;;;10.60;10.30;;;5.70;99.90;;;;;;5060032;28;20318;-87
2022/03/17 04:28:54;;;;;;;10.70;10.40;;;5.70;99.90;;;;;;5061356;28;20235;-87
2022/03/17 04:31:22;;;;;;;10.83;10.53;;;5.80;99.90;;;;;;5060541;28;20238;-88
2022/03/17 04:33:51;;;;;;;10.70;10.40;;;5.80;99.90;;;;;;5060766;28;20227;-88
2022/03/17 04:36:20;;;;;;;10.53;10.23;;;5.80;99.90;;;;;;5060253;28;20234;-86
2022/03/17 04:38:49;;;;;;;10.53;10.23;;;5.70;99.90;;;;;;5060957;28;20226;-87
2022/03/17 04:41:18;;;;;;;10.80;10.50;;;5.60;99.90;;;;;;5061508;28;20238;-88
2022/03/17 04:43:48;;;;;;;10.70;10.40;;;5.70;99.90;;;;;;5062454;28;20242;-88
2022/03/17 04:46:20;;;;;;;10.47;10.17;;;5.70;99.90;;;;;;5060925;28;20226;-88
2022/03/17 04:48:48;;;;;;;10.70;10.40;;;5.70;99.90;;;;;;5060343;28;20231;-87
2022/03/17 04:51:25;;;;;;;10.50;10.20;;;5.70;99.90;;;;;;5059863;28;20227;-87
2022/03/17 04:53:54;;;;;;;10.40;10.10;;;5.80;99.90;;;;;;5059604;28;20222;-87
2022/03/17 04:56:23;;;;;;;10.10;9.80;;;5.70;99.90;;;;;;5060144;28;20226;-87
2022/03/17 04:58:55;;;;;;;10.60;10.30;;;5.70;99.90;;;;;;5061000;28;20239;-86
2022/03/17 05:01:32;;;;;;;10.50;10.20;;;5.80;99.90;;;;;;5079157;28;20210;-86
2022/03/17 05:04:01;;;;;;;10.40;10.10;;;5.80;99.90;;;;;;5064993;28;20243;-87
2022/03/17 05:06:30;;;;;;;10.47;10.17;;;5.80;99.90;;;;;;5060728;28;20294;-85
2022/03/17 05:09:00;;;;;;;10.30;10.00;;;5.80;99.90;;;;;;5060365;28;20222;-86
2022/03/17 05:11:30;;;;;;;10.47;10.17;;;5.80;99.90;;;;;;5060932;28;20281;-88
2022/03/17 05:13:58;;;;;;;10.40;10.10;;;5.80;99.90;;;;;;5059614;28;20227;-88
2022/03/17 05:16:38;;;;;;;10.33;10.03;;;5.80;99.90;;;;;;5060912;28;20235;-87
2022/03/17 05:19:09;;;;;;;10.80;10.50;;;5.90;99.90;;;;;;5060041;28;20238;-85
2022/03/17 05:21:38;;;;;;;10.63;10.33;;;5.90;99.90;;;;;;5060524;28;20225;-86
2022/03/17 05:24:07;;;;;;;10.70;10.40;;;5.90;99.90;;;;;;5060244;28;20238;-86
2022/03/17 05:26:35;;;;;;;11.03;10.73;;;5.90;99.90;;;;;;5060764;28;20325;-86
2022/03/17 05:29:06;;;;;;;10.80;10.50;;;5.90;99.90;;;;;;5060408;28;20253;-86
2022/03/17 05:31:45;;;;;;;10.87;10.57;;;5.90;99.90;;;;;;5061002;28;20231;-86
2022/03/17 05:34:13;;;;;;;10.67;10.37;;;5.90;99.90;;;;;;5061895;28;20265;-88
2022/03/17 05:36:40;;;;;;;10.63;10.33;;;5.90;99.90;;;;;;5062903;28;20232;-87
2022/03/17 05:39:10;;;;;;;10.80;10.50;;;5.90;99.90;;;;;;5065296;28;20242;-87
2022/03/17 05:41:39;;;;;;;10.80;10.50;;;5.90;99.90;;;;;;5062735;28;20270;-87
2022/03/17 05:44:09;;;;;;;11.07;10.77;;;5.90;99.90;;;;;;5063668;28;20241;-87
2022/03/17 05:46:48;;;;;;;11.10;10.80;;;5.90;99.90;;;;;;5064192;28;20277;-87
2022/03/17 05:49:19;;;;;;;10.80;10.50;;;5.80;99.90;;;;;;5063726;28;20231;-88
2022/03/17 05:51:48;;;;;;;10.77;10.47;;;5.80;99.90;;;;;;5063322;28;20301;-87
2022/03/17 05:54:17;;;;;;;11.00;10.70;;;5.80;99.90;;;;;;5063263;28;20234;-88
2022/03/17 05:56:47;;;;;;;11.00;10.70;;;5.80;99.90;;;;;;5063466;28;20234;-87
2022/03/17 05:59:16;;;;;;;10.60;10.30;;;5.80;99.90;;;;;;5064509;28;20377;-87
2022/03/17 06:01:56;;;;;;;10.73;10.43;;;5.90;99.90;;;;;;5079282;28;20219;-85
2022/03/17 06:04:25;;;;;;;10.90;10.60;;;5.90;99.90;;;;;;5065771;28;20239;-86
2022/03/17 06:06:54;;;;;;;10.70;10.40;;;5.90;99.90;;;;;;5065541;28;20245;-87
2022/03/17 06:09:24;;;;;;;10.37;10.07;;;5.90;99.90;;;;;;5064976;28;20233;-88
2022/03/17 06:11:53;;;;;;;11.00;10.70;;;6.00;99.90;;;;;;5070017;28;20222;-85
2022/03/17 06:14:22;;;;;;;10.80;10.50;;;6.00;99.90;;;;;;5082086;28;20234;-84
2022/03/17 06:16:54;;;;;;;10.80;10.50;;;6.10;99.90;;;;;;5081820;28;20239;-87
2022/03/17 06:19:22;;;;;;;10.77;10.47;;;6.10;99.90;;;;;;5081590;28;20229;-84
2022/03/17 06:21:51;;;;;;;10.53;10.23;;;6.20;99.90;;;;;;5081806;28;20219;-83
2022/03/17 06:24:19;;;;;;;10.70;10.40;;;6.20;99.90;;;;;;5082235;28;20233;-84
2022/03/17 06:26:49;;;;;;;10.67;10.37;;;6.20;99.90;;;;;;5081740;28;20214;-84
2022/03/17 06:29:19;;;;;;;10.43;10.13;;;6.30;99.90;;;;;;5081268;28;20219;-84
2022/03/17 06:31:49;;;;;;;10.47;10.17;;;6.40;99.90;;;;;;5080058;28;20207;-87
2022/03/17 06:34:20;;;;;;;10.40;10.10;;;6.30;99.90;;;;;;5067617;28;21031;-88
2022/03/17 06:36:48;;;;;;;10.10;9.80;;;6.40;99.90;;;;;;5066977;28;20253;-87
2022/03/17 06:39:16;;;;;;;10.40;10.10;;;6.40;99.90;;;;;;5066752;28;20246;-87
2022/03/17 06:41:47;;;;;;;10.50;10.20;;;6.50;99.90;;;;;;5065811;28;20262;-85
2022/03/17 06:44:15;;;;;;;10.40;10.10;;;6.40;99.90;;;;;;5065103;28;20230;-87
2022/03/17 06:46:44;;;;;;;10.40;10.10;;;6.40;99.90;;;;;;5065437;28;20231;-86
2022/03/17 06:49:14;;;;;;;10.40;10.10;;;6.50;99.90;;;;;;5064710;28;20238;-87
2022/03/17 06:51:46;;;;;;;10.43;10.13;;;6.50;99.90;;;;;;5064603;28;20215;-87
2022/03/17 06:54:15;;;;;;;10.23;9.93;;;6.50;99.90;;;;;;5064124;28;20242;-87
2022/03/17 06:56:43;;;;;;;10.30;10.00;;;6.50;99.90;;;;;;5072789;28;20235;-86
2022/03/17 06:59:11;;;;;;;10.47;10.17;;;6.50;99.90;;;;;;5100470;22;20249;-81
2022/03/17 07:01:39;;;;;;;10.40;10.10;;;6.60;99.90;;;;;;5080304;28;20344;-82
2022/03/17 07:04:07;;;;;;;10.07;9.77;;;6.50;99.90;;;;;;5060825;28;20254;-82
2022/03/17 07:06:35;;;;;;;10.40;10.10;;;6.50;99.90;;;;;;5061611;28;20239;-82
2022/03/17 07:09:04;;;;;;;10.40;10.10;;;6.60;99.90;;;;;;5067039;28;20243;-82
2022/03/17 07:11:32;;;;;;;10.50;10.20;;;6.60;99.90;;;;;;5095980;28;20910;-83
2022/03/17 07:14:00;;;;;;;10.23;9.93;;;6.60;99.90;;;;;;5106106;28;20233;-83
2022/03/17 07:16:28;;;;;;;10.23;9.93;;;6.70;99.90;;;;;;5105470;28;20244;-85
2022/03/17 07:18:56;;;;;;;10.10;9.80;;;6.80;99.90;;;;;;5074145;28;20230;-85
2022/03/17 07:21:24;;;;;;;10.47;10.17;;;6.90;99.90;;;;;;5098313;28;20240;-84
2022/03/17 07:23:52;;;;;;;10.43;10.13;;;7.00;99.90;;;;;;5100357;28;20229;-82
2022/03/17 07:26:21;;;;;;;10.23;9.93;;;7.00;99.90;;;;;;5100861;28;20339;-83
2022/03/17 07:28:50;;;;;;;10.50;10.20;;;7.10;99.90;;;;;;5103860;28;20233;-82
2022/03/17 07:31:18;;;;;;;10.20;9.90;;;7.20;99.90;;;;;;5120378;28;20305;-83
2022/03/17 07:33:45;;;;;;;10.40;10.10;;;7.30;99.90;;;;;;5108839;28;20245;-82
2022/03/17 07:36:13;;;;;;;10.60;10.30;;;7.40;99.90;;;;;;5086072;28;20238;-82
2022/03/17 07:38:41;;;;;;;10.23;9.93;;;7.40;99.90;;;;;;5065167;28;20246;-82
2022/03/17 07:41:09;;;;;;;10.13;9.83;;;7.50;99.90;;;;;;5061591;28;20227;-83
2022/03/17 07:43:40;;;;;;;10.40;10.10;;;7.50;99.90;;;;;;5061838;28;20235;-82
2022/03/17 07:46:08;;;;;;;10.20;9.90;;;7.50;99.90;;;;;;5069579;28;20262;-83
2022/03/17 07:48:36;;;;;;;10.23;9.93;;;7.50;99.90;;;;;;5080943;28;20278;-85
2022/03/17 07:51:04;;;;;;;10.13;9.83;;;7.50;99.90;;;;;;5080862;28;20201;-84
2022/03/17 07:53:32;;;;;;;10.23;9.93;;;7.60;99.90;;;;;;5080071;28;20249;-85
2022/03/17 07:56:00;;;;;;;10.23;9.93;;;7.60;99.90;;;;;;5080211;28;20261;-83
2022/03/17 07:58:28;;;;;;;10.27;9.97;;;7.60;99.90;;;;;;5074278;28;20330;-82
2022/03/17 08:00:58;;;;;;;10.47;10.17;;;7.70;99.90;;;;;;5068584;28;20242;-82
2022/03/17 08:03:26;;;;;;;10.23;9.93;;;7.80;99.90;;;;;;5066095;28;20230;-83
2022/03/17 08:05:55;;;;;;;10.40;10.10;;;7.90;99.90;;;;;;5063436;28;20254;-83
2022/03/17 08:08:24;;;;;;;10.47;10.17;;;7.90;99.90;;;;;;5062711;28;20242;-84
2022/03/17 08:10:52;;;;;;;10.40;10.10;;;7.90;99.90;;;;;;5086878;28;20222;-84
2022/03/17 08:13:22;;;;;;;10.17;9.87;;;8.00;99.90;;;;;;5099631;28;20226;-84
2022/03/17 08:15:49;;;;;;;10.03;9.73;;;8.10;99.90;;;;;;5108407;28;20233;-84
2022/03/17 08:18:19;;;;;;;10.30;10.00;;;8.20;99.90;;;;;;5118442;28;20257;-82
2022/03/17 08:20:47;;;;;;;10.20;9.90;;;8.30;99.90;;;;;;5119400;28;20214;-83
2022/03/17 08:23:21;;;;;;;10.17;9.87;;;8.30;99.90;;;;;;5110159;28;20234;-85
2022/03/17 08:25:52;;;;;;;9.93;9.63;;;8.40;99.90;;;;;;5097069;28;20217;-83
2022/03/17 08:28:20;;;;;;;10.27;9.97;;;8.40;99.90;;;;;;5082993;28;20228;-83
2022/03/17 08:30:49;;;;;;;10.10;9.80;;;8.50;99.90;;;;;;5081784;28;20218;-84
2022/03/17 08:33:19;;;;;;;10.27;9.97;;;8.60;99.90;;;;;;5086413;28;20253;-84
2022/03/17 08:35:48;;;;;;;10.47;10.17;;;8.70;99.90;;;;;;5094191;28;20239;-83
2022/03/17 08:38:16;;;;;;;10.43;10.13;;;8.80;99.90;;;;;;5100431;28;20348;-84
2022/03/17 08:40:44;;;;;;;10.73;10.43;;;8.80;99.90;;;;;;5101166;28;20210;-84
2022/03/17 08:43:16;;;;;;;10.40;10.10;;;9.00;99.90;;;;;;5107085;28;20240;-83
2022/03/17 08:51:16;;;;;;;10.20;9.90;;;9.00;99.90;;;;;;5082600;28;20206;-83
2022/03/17 08:53:44;;;;;;;10.30;10.00;;;9.00;99.90;;;;;;5082774;28;20234;-83
2022/03/17 08:56:12;;;;;;;10.20;9.90;;;9.00;99.90;;;;;;5081720;28;20260;-84
2022/03/17 08:58:40;;;;;;;10.20;9.90;;;9.00;99.90;;;;;;5080521;28;20236;-83
2022/03/17 09:01:08;;;;;;;10.27;9.97;;;9.10;99.90;;;;;;5080770;28;20234;-83
2022/03/17 09:03:38;;;;;;;10.30;10.00;;;9.20;99.90;;;;;;5080322;28;20292;-83
2022/03/17 09:06:10;;;;;;;10.37;10.07;;;9.20;99.90;;;;;;5078813;28;20240;-85
2022/03/17 09:08:46;;;;;;;10.47;10.17;;;9.20;99.90;;;;;;5061252;28;20254;-84
2022/03/17 09:11:14;;;;;;;10.20;9.90;;;9.20;99.90;;;;;;5061684;28;20230;-84
2022/03/17 09:13:43;;;;;;;10.13;9.83;;;9.30;99.90;;;;;;5072232;28;20242;-84
2022/03/17 09:16:12;;;;;;;10.10;9.80;;;9.40;99.90;;;;;;5081664;28;20234;-85
2022/03/17 09:18:43;;;;;;;10.17;9.87;;;9.40;99.90;;;;;;5086336;28;20333;-83
2022/03/17 09:21:11;;;;;;;10.20;9.90;;;9.60;99.90;;;;;;5091464;28;20220;-84
2022/03/17 09:23:40;;;;;;;10.40;10.10;;;9.40;99.90;;;;;;5104472;28;20229;-83
2022/03/17 09:26:27;;;;;;;10.20;9.90;;;9.40;99.90;;;;;;5105585;28;20290;-82
2022/03/17 09:28:55;;;;;;;10.23;9.93;;;9.60;99.90;;;;;;5104680;28;20221;-82
2022/03/17 09:31:31;;;;;;;10.50;10.20;;;9.70;99.90;;;;;;5106219;28;20228;-83
2022/03/17 09:34:04;;;;;;;10.50;10.20;;;9.70;99.90;;;;;;5105272;28;20240;-83
2022/03/17 09:36:33;;;;;;;10.40;10.10;;;9.70;99.90;;;;;;5105430;28;20267;-84
2022/03/17 09:41:50;;;;;;;10.50;10.20;;;9.60;99.90;;;;;;5104633;28;20202;-82
2022/03/17 09:44:22;;;;;;;10.40;10.10;;;9.70;99.90;;;;;;5103731;28;20239;-82
2022/03/17 09:46:55;;;;;;;10.53;10.23;;;9.70;99.90;;;;;;5104220;28;20226;-82
2022/03/17 09:52:24;;;;;;;10.80;10.50;;;9.80;99.90;;;;;;5080427;28;20312;-82
2022/03/17 09:54:55;;;;;;;10.30;10.00;;;9.90;99.90;;;;;;5104025;28;20281;-83
2022/03/17 09:57:24;;;;;;;10.40;10.10;;;9.80;99.90;;;;;;5104254;28;20234;-83
2022/03/17 10:00:04;;;;;;;10.40;10.10;;;9.80;99.90;;;;;;5103360;28;20265;-81
2022/03/17 10:02:36;;;;;;;10.53;10.23;;;9.90;99.90;;;;;;5102891;28;20316;-83
2022/03/17 10:05:11;;;;;;;10.20;9.90;;;10.00;99.90;;;;;;5102293;28;20233;-82
2022/03/17 10:07:47;;;;;;;10.30;10.00;;;10.10;99.90;;;;;;5102404;28;20232;-82
2022/03/17 10:10:16;;;;;;;10.33;10.03;;;10.10;99.90;;;;;;5102931;28;20241;-81
2022/03/17 10:12:45;;;;;;;10.60;10.30;;;10.20;99.90;;;;;;5102456;28;20229;-82
2022/03/17 10:15:19;;;;;;;10.30;10.00;;;10.20;99.90;;;;;;5104505;28;20255;-82
2022/03/17 10:17:47;;;;;;;10.30;10.00;;;10.30;99.90;;;;;;5104641;28;20234;-82
2022/03/17 10:20:19;;;;;;;10.40;10.10;;;10.30;99.90;;;;;;5103335;28;20244;-82
2022/03/17 10:22:49;;;;;;;10.60;10.30;;;10.30;99.90;;;;;;5104180;28;20305;-82
2022/03/17 10:25:20;;;;;;;10.40;10.10;;;10.20;99.90;;;;;;5104125;28;20233;-81
2022/03/17 10:27:54;;;;;;;10.50;10.20;;;10.20;99.90;;;;;;5103311;28;20275;-84
2022/03/17 10:30:33;;;;;;;10.40;10.10;;;10.20;99.90;;;;;;5102850;28;20225;-80
2022/03/17 10:33:04;;;;;;;10.47;10.17;;;10.40;99.90;;;;;;5102043;28;20210;-79
2022/03/17 10:35:36;;;;;;;10.80;10.50;;;10.70;99.90;;;;;;5106125;28;20240;-79
2022/03/17 10:38:16;;;;;;;10.80;10.50;;;11.00;99.90;;;;;;5100459;28;20256;-79
2022/03/17 10:41:00;;;;;;;10.73;10.43;;;11.10;99.90;;;;;;5101031;28;20240;-79
2022/03/17 10:43:29;;;;;;;10.53;10.23;;;10.90;99.90;;;;;;5102648;28;20228;-82
2022/03/17 10:46:07;;;;;;;10.60;10.30;;;10.90;99.90;;;;;;5104175;28;20260;-81
2022/03/17 10:48:55;;;;;;;10.57;10.27;;;10.70;99.90;;;;;;5104747;28;20264;-81
2022/03/17 10:51:37;;;;;;;10.40;10.10;;;10.80;99.90;;;;;;5104573;28;20218;-80
2022/03/17 10:54:08;;;;;;;10.17;9.87;;;10.90;99.90;;;;;;5103808;28;20221;-81
2022/03/17 10:56:39;;;;;;;10.20;9.90;;;11.00;99.90;;;;;;5103737;28;20276;-81
2022/03/17 10:59:09;;;;;;;10.30;10.00;;;11.10;99.90;;;;;;5105668;28;20249;-81
2022/03/17 11:01:40;;;;;;;10.53;10.23;;;11.20;99.90;;;;;;5105259;28;20224;-82
2022/03/17 11:04:08;;;;;;;10.50;10.20;;;11.30;99.90;;;;;;5104319;28;20228;-81
2022/03/17 11:06:39;;;;;;;10.40;10.10;;;11.30;99.90;;;;;;5105044;28;20329;-81
2022/03/17 11:09:08;;;;;;;10.80;10.50;;;11.40;99.90;;;;;;5103993;28;20237;-81
2022/03/17 11:11:38;;;;;;;10.30;10.00;;;11.40;99.90;;;;;;5102683;28;20248;-80
2022/03/17 11:14:09;;;;;;;10.30;10.00;;;11.30;99.90;;;;;;5103502;28;20217;-81
2022/03/17 11:16:42;;;;;;;10.60;10.30;;;11.20;99.90;;;;;;5103418;28;20225;-81
2022/03/17 11:19:13;;;;;;;10.43;10.13;;;11.00;99.90;;;;;;5102799;28;20240;-82
2022/03/17 11:21:48;;;;;;;10.60;10.30;;;10.90;99.90;;;;;;5103618;28;21001;-81
2022/03/17 11:24:21;;;;;;;10.20;9.90;;;10.80;99.90;;;;;;5102987;28;20225;-80
2022/03/17 11:27:08;;;;;;;10.50;10.20;;;10.70;99.90;;;;;;5103464;28;20240;-80
2022/03/17 11:29:41;;;;;;;10.40;10.10;;;10.60;99.90;;;;;;5103902;28;20233;-81
2022/03/17 11:32:27;;;;;;;10.17;9.87;;;10.60;99.90;;;;;;5113637;28;20206;-82
2022/03/17 11:35:09;;;;;;;10.60;10.30;;;10.50;99.90;;;;;;5120722;28;20236;-83
2022/03/17 11:37:39;;;;;;;10.40;10.10;;;10.50;99.90;;;;;;5120853;28;20233;-84
2022/03/17 11:40:11;;;;;;;10.50;10.20;;;10.50;99.90;;;;;;5120865;28;20241;-82
2022/03/17 11:42:43;;;;;;;10.47;10.17;;;10.60;99.90;;;;;;5113951;28;20244;-82
2022/03/17 11:45:40;;;;;;;10.50;10.20;;;10.60;99.90;;;;;;5103039;28;20252;-82
2022/03/17 11:48:14;;;;;;;10.23;9.93;;;10.60;99.90;;;;;;5102507;28;20237;-81
2022/03/17 11:50:50;;;;;;;10.50;10.20;;;10.50;99.90;;;;;;5102973;28;20245;-82
2022/03/17 11:53:38;;;;;;;10.57;10.27;;;10.50;99.90;;;;;;5101420;28;20243;-83
2022/03/17 11:56:09;;;;;;;10.60;10.30;;;10.50;99.90;;;;;;5101586;28;20221;-82
2022/03/17 11:58:46;;;;;;;10.50;10.20;;;10.50;99.90;;;;;;5101475;28;20291;-82
2022/03/17 12:01:23;;;;;;;10.60;10.30;;;10.50;99.90;;;;;;5102049;28;20232;-82
2022/03/17 12:03:56;;;;;;;10.47;10.17;;;10.60;99.90;;;;;;5102200;28;20356;-81
2022/03/17 12:06:25;;;;;;;10.33;10.03;;;10.70;99.90;;;;;;5101630;28;20217;-80
2022/03/17 12:09:00;;;;;;;10.50;10.20;;;10.70;99.90;;;;;;5101290;28;20265;-81
2022/03/17 12:11:33;;;;;;;10.20;9.90;;;10.70;99.90;;;;;;5101128;28;20256;-81
2022/03/17 12:14:22;;;;;;;10.40;10.10;;;10.60;99.90;;;;;;5089183;28;20234;-82
2022/03/17 12:16:57;;;;;;;10.30;10.00;;;10.60;99.90;;;;;;5081674;28;20230;-82
2022/03/17 12:19:36;;;;;;;10.40;10.10;;;10.60;99.90;;;;;;5077840;28;20317;-78
2022/03/17 12:22:13;;;;;;;10.67;10.37;;;10.80;99.90;;;;;;5078397;28;20229;-79
2022/03/17 12:24:47;;;;;;;10.60;10.30;;;11.00;99.90;;;;;;5077583;28;20230;-79
2022/03/17 12:27:29;;;;;;;10.60;10.30;;;10.90;99.90;;;;;;5076933;28;20231;-78
2022/03/17 12:30:00;;;;;;;10.20;9.90;;;10.90;99.90;;;;;;5077813;28;20300;-82
2022/03/17 12:32:34;;;;;;;10.43;10.13;;;11.00;99.90;;;;;;5085415;28;20238;-81
2022/03/17 12:35:05;;;;;;;10.40;10.10;;;11.00;99.90;;;;;;5086381;28;20228;-81
2022/03/17 12:37:36;;;;;;;10.20;9.90;;;11.10;99.90;;;;;;5081125;28;20222;-81
2022/03/17 12:40:08;;;;;;;10.33;10.03;;;11.10;99.90;;;;;;5081117;28;20242;-81
2022/03/17 12:42:41;;;;;;;10.60;10.30;;;11.20;99.90;;;;;;5081778;28;20245;-82
2022/03/17 12:45:12;;;;;;;10.50;10.20;;;11.30;99.90;;;;;;5081239;28;20219;-81
2022/03/17 12:47:43;;;;;;;10.50;10.20;;;11.30;99.90;;;;;;5081016;28;20226;-83
2022/03/17 12:50:15;;;;;;;10.43;10.13;;;11.30;99.90;;;;;;5081583;28;20230;-82
2022/03/17 12:52:47;;;;;;;10.70;10.40;;;11.40;99.90;;;;;;5081729;28;20312;-82
2022/03/17 12:55:21;;;;;;;10.63;10.33;;;11.50;99.90;;;;;;5080499;28;20215;-82
2022/03/17 12:57:49;;;;;;;10.50;10.20;;;11.50;99.90;;;;;;5080635;28;20226;-81
2022/03/17 13:23:55;;;;;;;10.50;10.20;;;12.10;99.90;;;;;;4797847;29;20221;-84
2022/03/17 13:32:43;;;;;;;10.10;9.80;;;12.20;99.90;;;;;;5066667;28;20234;-86
2022/03/17 13:39:19;;;;;;;10.50;10.20;;;12.30;99.90;;;;;;4982394;28;20229;-85
2022/03/17 13:45:00;;;;;;;10.13;9.83;;;12.40;99.90;;;;;;5057047;28;20231;-85
2022/03/17 13:51:28;;;;;;;10.70;10.40;;;12.50;99.90;;;;;;5097872;28;20229;-83
2022/03/17 13:54:36;;;;;;;10.13;9.83;;;12.50;99.90;;;;;;5086222;28;20230;-82
2022/03/17 14:03:51;;;;;;;10.30;10.00;;;12.50;99.90;;;;;;5074804;28;20237;-82
2022/03/17 14:06:29;;;;;;;10.27;9.97;;;12.60;99.90;;;;;;5037227;28;20235;-84